Time;durP1;ratioP1;P1;durP2;ratioP2;P2;SDS_P1;SDS_P2;PMS_P1;PMS_P2;Temp;Humidity;BMP_temperature;BMP_pressure;BME280_temperature;BME280_humidity;BME280_pressure;Samples;Min_cycle;Max_cycle;Signal;HPM_P1;HPM_P2
2022/03/16 00:00:18;;;;;;;;;;;;;;;23.32;36.97;96135.69;2037441;29;1700;-68
2022/03/16 00:01:20;;;;;;;;;;;;;;;23.35;36.86;96133.44;2041789;29;1807;-69
2022/03/16 00:02:22;;;;;;;;;;;;;;;23.35;36.92;96146.00;2033068;29;1940;-70
2022/03/16 00:03:24;;;;;;;;;;;;;;;23.37;37.20;96141.28;2040851;29;1883;-68
2022/03/16 00:04:26;;;;;;;;;;;;;;;23.40;37.13;96140.88;2039707;29;1910;-70
2022/03/16 00:05:28;;;;;;;;;;;;;;;23.50;36.96;96144.03;2041092;29;1834;-68
2022/03/16 00:06:29;;;;;;;;;;;;;;;23.48;36.96;96143.41;2033354;29;1702;-69
2022/03/16 00:07:31;;;;;;;;;;;;;;;23.48;37.11;96145.25;2026338;29;1676;-69
2022/03/16 00:08:33;;;;;;;;;;;;;;;23.47;36.91;96141.75;2033033;29;1164;-68
2022/03/16 00:09:34;;;;;;;;;;;;;;;23.46;37.17;96144.63;2035667;29;1743;-68
2022/03/16 00:10:36;;;;;;;;;;;;;;;23.46;37.15;96136.59;2032804;29;1207;-69
2022/03/16 00:11:37;;;;;;;;;;;;;;;23.38;37.34;96139.44;2030467;29;1790;-69
2022/03/16 00:12:40;;;;;;;;;;;;;;;23.43;37.07;96143.19;2033015;29;1728;-69
2022/03/16 00:13:43;;;;;;;;;;;;;;;23.37;37.16;96143.09;2040701;29;1108;-69
2022/03/16 00:14:44;;;;;;;;;;;;;;;23.35;36.89;96144.16;2038586;29;1924;-69
2022/03/16 00:15:46;;;;;;;;;;;;;;;23.39;37.21;96135.72;2033164;29;994;-70
2022/03/16 00:16:48;;;;;;;;;;;;;;;23.37;37.25;96135.94;2034725;29;1793;-68
2022/03/16 00:17:49;;;;;;;;;;;;;;;23.43;37.13;96135.13;2037727;29;1148;-70
2022/03/16 00:18:51;;;;;;;;;;;;;;;23.43;36.93;96140.50;2031952;29;1052;-70
2022/03/16 00:19:53;;;;;;;;;;;;;;;23.39;36.94;96138.41;2037338;29;1842;-70
2022/03/16 00:20:55;;;;;;;;;;;;;;;23.36;37.07;96144.97;2041136;29;1821;-70
2022/03/16 00:21:58;;;;;;;;;;;;;;;23.42;37.19;96138.81;2040448;29;1766;-70
2022/03/16 00:22:59;;;;;;;;;;;;;;;23.42;37.04;96133.47;2040618;29;1843;-70
2022/03/16 00:24:01;;;;;;;;;;;;;;;23.37;37.35;96133.25;2034071;29;1906;-70
2022/03/16 00:25:07;;;;;;;;;;;;;;;23.42;37.05;96133.47;2033857;29;1678;-70
2022/03/16 00:26:09;;;;;;;;;;;;;;;23.40;37.23;96142.75;2049712;28;1224;-71
2022/03/16 00:27:10;;;;;;;;;;;;;;;23.26;37.75;96142.66;2049743;28;1121;-69
2022/03/16 00:28:12;;;;;;;;;;;;;;;23.18;37.73;96137.44;2033945;28;1848;-69
2022/03/16 00:29:14;;;;;;;;;;;;;;;23.20;37.70;96139.94;2029882;29;1557;-69
2022/03/16 00:30:15;;;;;;;;;;;;;;;23.28;37.60;96129.03;2040920;29;1341;-69
2022/03/16 00:31:17;;;;;;;;;;;;;;;23.24;38.00;96125.13;2040954;29;1651;-69
2022/03/16 00:32:19;;;;;;;;;;;;;;;23.18;37.81;96125.91;2040561;29;1746;-70
2022/03/16 00:33:20;;;;;;;;;;;;;;;23.18;37.72;96125.91;2041791;29;1629;-70
2022/03/16 00:34:22;;;;;;;;;;;;;;;23.16;38.10;96125.25;2036063;29;1785;-70
2022/03/16 00:35:23;;;;;;;;;;;;;;;23.10;38.11;96122.31;2046115;29;1638;-69
2022/03/16 00:36:25;;;;;;;;;;;;;;;23.09;38.15;96115.34;2042459;28;1762;-70
2022/03/16 00:37:28;;;;;;;;;;;;;;;23.11;37.77;96118.66;2040405;29;1782;-69
2022/03/16 00:38:29;;;;;;;;;;;;;;;23.31;37.60;96117.97;2041335;29;1722;-68
2022/03/16 00:39:31;;;;;;;;;;;;;;;23.35;37.31;96121.91;2039886;29;1659;-69
2022/03/16 00:40:33;;;;;;;;;;;;;;;23.42;37.19;96116.56;2029082;29;1163;-69
2022/03/16 00:41:35;;;;;;;;;;;;;;;23.42;37.21;96114.72;2031784;29;1632;-68
2022/03/16 00:42:37;;;;;;;;;;;;;;;23.37;37.28;96117.19;2038566;29;1769;-69
2022/03/16 00:43:38;;;;;;;;;;;;;;;23.38;37.50;96110.78;2033760;29;940;-68
2022/03/16 00:44:40;;;;;;;;;;;;;;;23.34;37.36;96104.19;2042943;29;1983;-68
2022/03/16 00:45:41;;;;;;;;;;;;;;;23.37;37.45;96098.44;2040585;29;1207;-68
2022/03/16 00:46:43;;;;;;;;;;;;;;;23.38;37.48;96089.38;2040338;29;1724;-68
2022/03/16 00:47:45;;;;;;;;;;;;;;;23.43;37.38;96086.13;2032001;29;1022;-68
2022/03/16 00:48:46;;;;;;;;;;;;;;;23.43;37.49;96089.63;2033181;29;1730;-69
2022/03/16 00:49:48;;;;;;;;;;;;;;;23.40;37.23;96083.84;2036975;29;1640;-68
2022/03/16 00:50:49;;;;;;;;;;;;;;;23.41;37.55;96086.28;2040272;29;1123;-69
2022/03/16 00:51:51;;;;;;;;;;;;;;;23.44;37.45;96083.22;2038668;29;1732;-70
2022/03/16 00:52:53;;;;;;;;;;;;;;;23.50;37.32;96079.75;2037122;29;1760;-69
2022/03/16 00:53:55;;;;;;;;;;;;;;;23.48;37.46;96081.81;2033276;29;1802;-69
2022/03/16 00:54:57;;;;;;;;;;;;;;;23.56;37.05;96080.81;2036821;29;1559;-69
2022/03/16 00:55:58;;;;;;;;;;;;;;;23.58;37.00;96082.25;2033462;29;1782;-70
2022/03/16 00:57:01;;;;;;;;;;;;;;;23.50;37.28;96079.75;2047073;29;1854;-69
2022/03/16 00:58:02;;;;;;;;;;;;;;;23.41;37.23;96080.94;2048805;28;1561;-69
2022/03/16 00:59:04;;;;;;;;;;;;;;;23.41;37.46;96078.25;2036283;29;1632;-69
2022/03/16 01:00:06;;;;;;;;;;;;;;;23.37;37.44;96068.97;2045228;29;1736;-69
2022/03/16 01:01:09;;;;;;;;;;;;;;;23.43;37.42;96067.38;2039309;29;1662;-71
2022/03/16 01:02:10;;;;;;;;;;;;;;;23.43;37.21;96067.38;2036529;29;1620;-71
2022/03/16 01:03:12;;;;;;;;;;;;;;;23.49;37.09;96066.56;2040235;29;1759;-72
2022/03/16 01:04:14;;;;;;;;;;;;;;;23.43;37.49;96073.53;2040661;29;1906;-72
2022/03/16 01:05:16;;;;;;;;;;;;;;;23.47;37.28;96073.97;2036757;29;1789;-71
2022/03/16 01:06:17;;;;;;;;;;;;;;;23.40;37.41;96073.94;2040324;29;1800;-71
2022/03/16 01:07:19;;;;;;;;;;;;;;;23.40;37.32;96068.59;2041348;29;1747;-71
2022/03/16 01:08:20;;;;;;;;;;;;;;;23.41;37.16;96070.22;2033180;29;1832;-72
2022/03/16 01:09:22;;;;;;;;;;;;;;;23.38;37.32;96059.91;2035395;29;1676;-71
2022/03/16 01:10:24;;;;;;;;;;;;;;;23.46;37.15;96057.06;2041384;29;965;-71
2022/03/16 01:11:25;;;;;;;;;;;;;;;23.46;37.30;96057.06;2040105;29;1824;-71
2022/03/16 01:12:27;;;;;;;;;;;;;;;23.49;37.38;96051.31;2040716;29;1811;-71
2022/03/16 01:13:28;;;;;;;;;;;;;;;23.48;37.28;96052.34;2042244;28;1539;-71
2022/03/16 01:14:30;;;;;;;;;;;;;;;23.53;37.29;96052.56;2041453;28;1560;-71
2022/03/16 01:15:32;;;;;;;;;;;;;;;23.48;37.46;96047.00;2038927;28;1746;-71
2022/03/16 01:16:35;;;;;;;;;;;;;;;23.49;37.47;96045.97;2046206;29;1749;-71
2022/03/16 01:17:37;;;;;;;;;;;;;;;23.55;37.24;96033.63;2045244;29;1806;-71
2022/03/16 01:18:39;;;;;;;;;;;;;;;23.54;37.31;96032.00;2033319;29;1710;-71
2022/03/16 01:19:41;;;;;;;;;;;;;;;23.57;36.91;96040.44;2043905;28;1494;-71
2022/03/16 01:20:42;;;;;;;;;;;;;;;23.52;37.29;96034.84;2056390;28;1055;-71
2022/03/16 01:21:44;;;;;;;;;;;;;;;23.50;37.01;96039.56;2048567;28;1696;-71
2022/03/16 01:22:46;;;;;;;;;;;;;;;23.48;37.07;96036.28;2041968;28;1928;-70
2022/03/16 01:23:47;;;;;;;;;;;;;;;23.50;37.14;96033.41;2033942;29;1722;-70
2022/03/16 01:24:49;;;;;;;;;;;;;;;23.52;37.04;96034.84;2044585;28;1915;-70
2022/03/16 01:25:51;;;;;;;;;;;;;;;23.52;37.25;96028.69;2040446;29;1433;-71
2022/03/16 01:26:54;;;;;;;;;;;;;;;23.57;37.31;96027.06;2047757;29;1723;-70
2022/03/16 01:27:55;;;;;;;;;;;;;;;23.55;37.26;96029.09;2038107;28;1680;-70
2022/03/16 01:28:57;;;;;;;;;;;;;;;23.50;37.28;96028.84;2040410;29;1626;-71
2022/03/16 01:29:58;;;;;;;;;;;;;;;23.51;37.09;96027.84;2040924;29;985;-70
2022/03/16 01:31:01;;;;;;;;;;;;;;;23.57;36.90;96028.91;2046947;29;1667;-71
2022/03/16 01:32:03;;;;;;;;;;;;;;;23.57;36.99;96016.34;2036828;28;1757;-71
2022/03/16 01:33:05;;;;;;;;;;;;;;;23.42;37.54;96018.31;2046282;29;1709;-70
2022/03/16 01:34:06;;;;;;;;;;;;;;;23.49;37.31;96002.28;2041099;29;1696;-70
2022/03/16 01:35:08;;;;;;;;;;;;;;;23.57;37.27;96010.97;2036557;29;1624;-70
2022/03/16 01:36:10;;;;;;;;;;;;;;;23.58;37.14;96001.09;2044342;29;1587;-70
2022/03/16 01:37:11;;;;;;;;;;;;;;;23.58;37.01;95999.22;2048455;28;1314;-70
2022/03/16 01:38:13;;;;;;;;;;;;;;;23.45;37.24;96001.88;2034173;29;1553;-70
2022/03/16 01:39:15;;;;;;;;;;;;;;;23.51;37.28;95995.72;2032121;29;1116;-70
2022/03/16 01:40:16;;;;;;;;;;;;;;;23.46;37.43;95998.16;2039079;29;1589;-71
2022/03/16 01:41:18;;;;;;;;;;;;;;;23.45;37.43;96012.59;2040202;29;990;-71
2022/03/16 01:42:21;;;;;;;;;;;;;;;23.42;37.41;96004.91;2040210;29;1747;-70
2022/03/16 01:43:23;;;;;;;;;;;;;;;23.34;37.63;96005.94;2040778;29;1781;-71
2022/03/16 01:44:40;;;;;;;;;;;;;;;23.37;37.50;96010.06;2040859;29;1530;-71
2022/03/16 01:45:46;;;;;;;;;;;;;;;23.46;37.16;96008.88;2041901;29;1676;-71
2022/03/16 01:46:48;;;;;;;;;;;;;;;23.47;37.39;96004.34;2042618;29;1734;-71
2022/03/16 01:47:49;;;;;;;;;;;;;;;23.44;37.48;96010.91;2034837;29;1633;-70
2022/03/16 01:48:51;;;;;;;;;;;;;;;23.46;37.46;96018.75;2032624;29;1045;-70
2022/03/16 01:49:55;;;;;;;;;;;;;;;23.41;37.43;96016.66;2046096;28;1674;-70
2022/03/16 01:50:56;;;;;;;;;;;;;;;23.40;37.42;96011.53;2042976;29;1697;-71
2022/03/16 01:51:58;;;;;;;;;;;;;;;23.41;37.54;96008.63;2040470;29;1051;-71
2022/03/16 01:53:00;;;;;;;;;;;;;;;23.36;37.55;96003.03;2035707;29;1709;-71
2022/03/16 01:54:01;;;;;;;;;;;;;;;23.38;37.73;95997.50;2039555;29;1617;-72
2022/03/16 01:55:05;;;;;;;;;;;;;;;23.38;37.64;95995.66;2039960;29;1519;-71
2022/03/16 01:56:07;;;;;;;;;;;;;;;23.38;37.52;95995.66;2033045;29;1623;-72
2022/03/16 01:57:12;;;;;;;;;;;;;;;23.42;37.60;95994.22;2028993;29;1806;-72
2022/03/16 01:58:13;;;;;;;;;;;;;;;23.41;37.44;95995.25;2041751;29;1707;-71
2022/03/16 01:59:15;;;;;;;;;;;;;;;23.40;37.39;95998.13;2037554;29;1811;-72
2022/03/16 02:00:17;;;;;;;;;;;;;;;23.40;37.54;96007.00;2032221;29;1113;-72
2022/03/16 02:01:18;;;;;;;;;;;;;;;23.39;37.48;96007.19;2035142;29;1670;-72
2022/03/16 02:02:20;;;;;;;;;;;;;;;23.42;37.50;96012.13;2047904;28;1726;-71
2022/03/16 02:03:22;;;;;;;;;;;;;;;23.39;37.66;96007.19;2039976;29;1722;-71
2022/03/16 02:04:24;;;;;;;;;;;;;;;23.44;37.49;96000.19;2040812;29;1080;-71
2022/03/16 02:05:27;;;;;;;;;;;;;;;23.42;37.61;95999.56;2039120;29;1993;-71
2022/03/16 02:06:28;;;;;;;;;;;;;;;23.35;37.70;95998.72;2033409;29;1755;-72
2022/03/16 02:07:30;;;;;;;;;;;;;;;23.37;37.68;95996.69;2032750;29;1707;-71
2022/03/16 02:08:32;;;;;;;;;;;;;;;23.45;37.58;95999.19;2027978;29;1163;-71
2022/03/16 02:09:34;;;;;;;;;;;;;;;23.43;37.44;95998.56;2036835;29;1789;-71
2022/03/16 02:10:36;;;;;;;;;;;;;;;23.40;37.62;95988.25;2041007;29;1153;-71
2022/03/16 02:11:38;;;;;;;;;;;;;;;23.41;37.49;95987.22;2042374;29;1674;-71
2022/03/16 02:12:47;;;;;;;;;;;;;;;23.38;37.74;95984.13;2032196;29;1805;-71
2022/03/16 02:13:49;;;;;;;;;;;;;;;23.46;37.42;95984.75;2032325;29;1753;-70
2022/03/16 02:14:50;;;;;;;;;;;;;;;23.49;37.43;95980.88;2039064;29;1744;-72
2022/03/16 02:15:52;;;;;;;;;;;;;;;23.40;37.68;95988.25;2039779;29;1587;-71
2022/03/16 02:16:56;;;;;;;;;;;;;;;23.44;37.57;95986.81;2040155;29;1674;-70
2022/03/16 02:17:58;;;;;;;;;;;;;;;23.44;37.65;95984.13;2040975;29;1551;-70
2022/03/16 02:19:00;;;;;;;;;;;;;;;23.55;37.20;95980.06;2041547;29;1717;-69
2022/03/16 02:20:02;;;;;;;;;;;;;;;23.46;37.57;95979.41;2046653;29;1065;-69
2022/03/16 02:21:05;;;;;;;;;;;;;;;23.47;37.32;95985.59;2045226;28;1650;-70
2022/03/16 02:22:08;;;;;;;;;;;;;;;23.48;37.43;95979.19;2047449;29;1666;-70
2022/03/16 02:23:10;;;;;;;;;;;;;;;23.46;37.62;95986.63;2032201;29;1089;-69
2022/03/16 02:24:12;;;;;;;;;;;;;;;23.52;37.28;95980.47;2036605;29;1673;-69
2022/03/16 02:25:15;;;;;;;;;;;;;;;23.52;37.31;95981.28;2032080;29;1887;-69
2022/03/16 02:26:17;;;;;;;;;;;;;;;23.47;37.36;95989.09;2033135;29;1735;-70
2022/03/16 02:27:18;;;;;;;;;;;;;;;23.42;37.49;95990.72;2039598;29;1764;-72
2022/03/16 02:28:21;;;;;;;;;;;;;;;23.46;37.19;95990.13;2040868;29;1089;-73
2022/03/16 02:29:23;;;;;;;;;;;;;;;23.47;37.22;95986.41;2036519;29;1612;-72
2022/03/16 02:30:26;;;;;;;;;;;;;;;23.47;37.30;95988.25;2038601;29;1624;-72
2022/03/16 02:31:28;;;;;;;;;;;;;;;23.44;37.52;95984.13;2043857;29;1467;-72
2022/03/16 02:32:29;;;;;;;;;;;;;;;23.46;37.40;95971.38;2039063;29;1723;-71
2022/03/16 02:33:31;;;;;;;;;;;;;;;23.48;37.50;95963.97;2041231;29;988;-71
2022/03/16 02:34:33;;;;;;;;;;;;;;;23.47;37.51;95970.34;2040071;29;1654;-71
2022/03/16 02:35:35;;;;;;;;;;;;;;;23.42;37.57;95970.09;2039632;29;1715;-71
2022/03/16 02:36:36;;;;;;;;;;;;;;;23.44;37.55;95969.91;2042033;29;1758;-71
2022/03/16 02:37:39;;;;;;;;;;;;;;;23.43;37.56;95963.75;2040941;29;1105;-71
2022/03/16 02:38:40;;;;;;;;;;;;;;;23.42;37.42;95975.47;2039505;29;1794;-70
2022/03/16 02:39:43;;;;;;;;;;;;;;;23.49;37.25;95970.97;2044775;29;1644;-69
2022/03/16 02:40:44;;;;;;;;;;;;;;;23.50;37.29;95966.44;2032221;29;1180;-69
2022/03/16 02:41:47;;;;;;;;;;;;;;;23.60;37.25;95971.44;2040740;29;1721;-70
2022/03/16 02:42:49;;;;;;;;;;;;;;;23.57;37.01;95968.13;2035123;28;1730;-70
2022/03/16 02:43:51;;;;;;;;;;;;;;;23.53;37.33;95972.22;2032486;29;1030;-69
2022/03/16 02:44:52;;;;;;;;;;;;;;;23.61;36.95;95970.41;2039303;29;1722;-70
2022/03/16 02:45:54;;;;;;;;;;;;;;;23.66;37.10;95962.59;2037463;29;1906;-70
2022/03/16 02:46:56;;;;;;;;;;;;;;;23.61;36.99;95957.81;2040989;29;1596;-71
2022/03/16 02:47:58;;;;;;;;;;;;;;;23.60;37.26;95966.06;2033090;29;1804;-71
2022/03/16 02:48:59;;;;;;;;;;;;;;;23.48;37.47;95961.28;2039994;29;1663;-71
2022/03/16 02:50:02;;;;;;;;;;;;;;;23.54;37.18;95962.34;2040700;29;1494;-70
2022/03/16 02:51:04;;;;;;;;;;;;;;;23.51;37.19;95957.41;2040070;29;1538;-71
2022/03/16 02:52:07;;;;;;;;;;;;;;;23.45;37.52;95956.34;2043599;29;1810;-70
2022/03/16 02:53:08;;;;;;;;;;;;;;;23.54;37.57;95968.53;2046866;29;1095;-71
2022/03/16 02:54:20;;;;;;;;;;;;;;;23.55;37.39;95958.63;2042925;29;1671;-72
2022/03/16 02:55:22;;;;;;;;;;;;;;;23.62;37.46;95958.63;2037955;29;1734;-71
2022/03/16 02:56:27;;;;;;;;;;;;;;;23.64;37.23;95961.94;2038746;29;1837;-71
2022/03/16 02:57:28;;;;;;;;;;;;;;;23.65;37.22;95958.22;2039354;29;1281;-72
2022/03/16 02:58:30;;;;;;;;;;;;;;;23.77;36.99;95951.31;2043687;29;1729;-71
2022/03/16 02:59:32;;;;;;;;;;;;;;;23.78;36.89;95955.63;2041250;29;1715;-72
2022/03/16 03:00:33;;;;;;;;;;;;;;;23.88;36.67;95953.41;2033652;29;1678;-72
2022/03/16 03:01:35;;;;;;;;;;;;;;;23.81;36.85;95947.19;2047598;29;1139;-71
2022/03/16 03:02:37;;;;;;;;;;;;;;;23.80;36.81;95945.53;2047728;28;1827;-71
2022/03/16 03:03:39;;;;;;;;;;;;;;;23.79;36.77;95943.88;2028023;29;1784;-71
2022/03/16 03:04:40;;;;;;;;;;;;;;;23.86;36.78;95942.03;2040354;29;1799;-71
2022/03/16 03:05:42;;;;;;;;;;;;;;;23.85;36.75;95944.91;2031846;29;1944;-71
2022/03/16 03:06:44;;;;;;;;;;;;;;;23.87;36.72;95951.72;2032264;29;1729;-71
2022/03/16 03:07:45;;;;;;;;;;;;;;;23.85;36.71;95947.59;2047306;28;1476;-70
2022/03/16 03:08:48;;;;;;;;;;;;;;;23.88;36.86;95936.47;2039751;29;1113;-71
2022/03/16 03:09:50;;;;;;;;;;;;;;;23.78;36.79;95937.69;2042294;29;1749;-70
2022/03/16 03:10:51;;;;;;;;;;;;;;;23.83;36.94;95929.06;2040906;29;1483;-71
2022/03/16 03:11:53;;;;;;;;;;;;;;;23.86;36.71;95923.28;2043883;29;1376;-71
2022/03/16 03:12:55;;;;;;;;;;;;;;;23.94;36.49;95925.78;2039910;29;1745;-70
2022/03/16 03:13:56;;;;;;;;;;;;;;;23.90;36.75;95929.06;2033990;29;1542;-71
2022/03/16 03:14:58;;;;;;;;;;;;;;;23.81;36.76;95925.75;2042081;29;1539;-71
2022/03/16 03:15:59;;;;;;;;;;;;;;;23.80;36.96;95924.09;2049529;29;813;-71
2022/03/16 03:17:02;;;;;;;;;;;;;;;23.86;36.67;95920.59;2049092;28;1785;-71
2022/03/16 03:18:04;;;;;;;;;;;;;;;23.84;36.68;95919.97;2038475;29;1888;-70
2022/03/16 03:19:05;;;;;;;;;;;;;;;23.77;36.81;95919.97;2034238;29;1635;-71
2022/03/16 03:20:07;;;;;;;;;;;;;;;23.76;36.84;95922.84;2044982;29;1647;-71
2022/03/16 03:21:09;;;;;;;;;;;;;;;23.72;36.96;95925.13;2041945;29;1486;-71
2022/03/16 03:22:10;;;;;;;;;;;;;;;23.77;36.76;95919.16;2040117;29;1758;-71
2022/03/16 03:23:12;;;;;;;;;;;;;;;23.81;36.83;95914.22;2041462;29;1867;-71
2022/03/16 03:24:14;;;;;;;;;;;;;;;23.83;36.70;95915.66;2042094;29;1097;-70
2022/03/16 03:25:15;;;;;;;;;;;;;;;23.75;36.71;95916.66;2037554;29;1109;-71
2022/03/16 03:26:17;;;;;;;;;;;;;;;23.79;36.81;95917.06;2041179;29;1899;-72
2022/03/16 03:27:18;;;;;;;;;;;;;;;23.82;36.87;95910.50;2041167;29;1754;-71
2022/03/16 03:28:20;;;;;;;;;;;;;;;23.81;36.66;95912.34;2042465;29;1120;-71
2022/03/16 03:29:22;;;;;;;;;;;;;;;23.81;36.94;95915.03;2041477;29;1765;-70
2022/03/16 03:30:24;;;;;;;;;;;;;;;23.76;36.72;95917.50;2039506;29;1743;-71
2022/03/16 03:31:26;;;;;;;;;;;;;;;23.76;36.96;95914.81;2033494;29;1656;-71
2022/03/16 03:32:27;;;;;;;;;;;;;;;23.76;36.63;95928.22;2026738;29;1708;-72
2022/03/16 03:33:30;;;;;;;;;;;;;;;23.71;36.72;95923.47;2033806;29;1722;-70
2022/03/16 03:34:31;;;;;;;;;;;;;;;23.75;36.71;95927.38;2036988;29;1915;-71
2022/03/16 03:35:34;;;;;;;;;;;;;;;23.74;36.79;95923.06;2037524;29;1637;-71
2022/03/16 03:36:35;;;;;;;;;;;;;;;23.71;36.76;95919.97;2033280;29;1668;-71
2022/03/16 03:37:37;;;;;;;;;;;;;;;23.70;36.92;95929.00;2037272;29;1754;-71
2022/03/16 03:38:38;;;;;;;;;;;;;;;23.57;37.42;95930.63;2034550;29;1124;-71
2022/03/16 03:39:41;;;;;;;;;;;;;;;23.52;37.26;95932.25;2040884;29;1706;-72
2022/03/16 03:40:42;;;;;;;;;;;;;;;23.55;37.20;95931.84;2038103;29;1659;-72
2022/03/16 03:41:44;;;;;;;;;;;;;;;23.60;37.35;95929.38;2049045;29;1331;-72
2022/03/16 03:42:46;;;;;;;;;;;;;;;23.54;37.21;95931.03;2038310;28;1779;-72
2022/03/16 03:43:47;;;;;;;;;;;;;;;23.58;37.21;95924.22;2042250;29;1050;-72
2022/03/16 03:44:49;;;;;;;;;;;;;;;23.56;37.41;95925.44;2040549;29;1661;-72
2022/03/16 03:45:51;;;;;;;;;;;;;;;23.58;37.30;95926.09;2041386;29;1972;-71
2022/03/16 03:46:53;;;;;;;;;;;;;;;23.53;37.39;95918.63;2033698;29;1064;-71
2022/03/16 03:47:54;;;;;;;;;;;;;;;23.53;37.39;95920.50;2032503;29;1941;-71
2022/03/16 03:48:56;;;;;;;;;;;;;;;23.54;37.55;95914.13;2041887;29;1159;-72
2022/03/16 03:49:58;;;;;;;;;;;;;;;23.53;37.33;95915.97;2041020;29;1507;-72
2022/03/16 03:50:59;;;;;;;;;;;;;;;23.52;37.50;95917.00;2041094;29;1538;-72
2022/03/16 03:52:02;;;;;;;;;;;;;;;23.47;37.40;95922.13;2042397;29;1664;-71
2022/03/16 03:53:03;;;;;;;;;;;;;;;23.51;37.60;95919.91;2041529;29;1661;-72
2022/03/16 03:54:05;;;;;;;;;;;;;;;23.44;37.48;95914.50;2041769;29;1630;-72
2022/03/16 03:55:07;;;;;;;;;;;;;;;23.48;37.84;95918.44;2041444;29;1338;-73
2022/03/16 03:56:08;;;;;;;;;;;;;;;23.51;37.46;95914.53;2041479;29;1057;-72
2022/03/16 03:57:10;;;;;;;;;;;;;;;23.52;37.58;95911.66;2040555;29;1664;-72
2022/03/16 03:58:12;;;;;;;;;;;;;;;23.43;37.58;95907.50;2040953;29;1574;-72
2022/03/16 03:59:13;;;;;;;;;;;;;;;23.42;37.57;95911.19;2048539;28;1615;-72
2022/03/16 04:00:15;;;;;;;;;;;;;;;23.42;37.78;95911.19;2037188;28;1710;-72
2022/03/16 04:01:17;;;;;;;;;;;;;;;23.40;37.68;95907.91;2037110;29;1624;-71
2022/03/16 04:02:19;;;;;;;;;;;;;;;23.43;37.80;95912.03;2034890;29;1767;-73
2022/03/16 04:03:20;;;;;;;;;;;;;;;21.76;29.71;95910.09;2041804;29;1658;-71
2022/03/16 04:04:22;;;;;;;;;;;;;;;19.35;29.82;95924.56;2040705;29;1738;-76
2022/03/16 04:05:24;;;;;;;;;;;;;;;17.49;30.72;95916.59;2044307;29;1650;-78
2022/03/16 04:06:26;;;;;;;;;;;;;;;16.25;32.14;95916.28;2041352;29;1992;-77
2022/03/16 04:07:28;;;;;;;;;;;;;;;15.60;32.84;95911.31;2033970;29;1778;-79
2022/03/16 04:08:30;;;;;;;;;;;;;;;15.18;32.94;95919.00;2039499;29;1666;-77
2022/03/16 04:09:31;;;;;;;;;;;;;;;15.15;32.68;95916.66;2038436;29;1789;-75
2022/03/16 04:10:36;;;;;;;;;;;;;;;14.89;32.38;95924.47;2041626;29;1746;-75
2022/03/16 04:11:37;;;;;;;;;;;;;;;14.66;32.18;95931.91;2041465;29;1146;-76
2022/03/16 04:12:39;;;;;;;;;;;;;;;14.68;31.81;95925.50;2041090;29;1749;-75
2022/03/16 04:13:41;;;;;;;;;;;;;;;14.61;31.98;95930.56;2038584;29;1950;-75
2022/03/16 04:14:42;;;;;;;;;;;;;;;14.30;31.57;95926.47;2039191;29;1577;-76
2022/03/16 04:15:44;;;;;;;;;;;;;;;13.94;31.93;95923.63;2040733;29;1029;-75
2022/03/16 04:16:46;;;;;;;;;;;;;;;13.94;32.06;95913.09;2041638;29;1663;-75
2022/03/16 04:17:48;;;;;;;;;;;;;;;13.86;32.44;95918.22;2039312;29;1534;-76
2022/03/16 04:18:49;;;;;;;;;;;;;;;13.74;32.30;95914.91;2038087;29;1932;-74
2022/03/16 04:19:51;;;;;;;;;;;;;;;13.57;32.55;95921.72;2043986;29;1618;-74
2022/03/16 04:20:53;;;;;;;;;;;;;;;13.48;32.40;95920.75;2029016;29;1826;-74
2022/03/16 04:21:54;;;;;;;;;;;;;;;13.35;32.43;95912.31;2040365;29;1782;-75
2022/03/16 04:22:56;;;;;;;;;;;;;;;13.42;32.28;95918.69;2040331;29;1767;-73
2022/03/16 04:23:58;;;;;;;;;;;;;;;13.45;32.07;95915.75;2032796;29;1115;-73
2022/03/16 04:25:00;;;;;;;;;;;;;;;13.22;32.54;95914.34;2033287;29;1092;-75
2022/03/16 04:26:02;;;;;;;;;;;;;;;13.11;32.62;95911.84;2040320;29;1514;-75
2022/03/16 04:27:06;;;;;;;;;;;;;;;13.25;32.44;95909.66;2041564;29;1927;-74
2022/03/16 04:28:09;;;;;;;;;;;;;;;13.13;32.26;95916.00;2035464;29;1821;-69
2022/03/16 04:29:10;;;;;;;;;;;;;;;13.16;32.35;95914.91;2033304;29;1087;-68
2022/03/16 04:30:12;;;;;;;;;;;;;;;13.20;32.46;95908.38;2034851;29;1811;-75
2022/03/16 04:31:14;;;;;;;;;;;;;;;13.16;32.44;95910.44;2044030;29;1690;-74
2022/03/16 04:32:16;;;;;;;;;;;;;;;13.11;32.35;95896.84;2049666;28;1811;-74
2022/03/16 04:33:17;;;;;;;;;;;;;;;13.08;32.36;95897.13;2048582;29;1044;-75
2022/03/16 04:34:19;;;;;;;;;;;;;;;13.44;32.25;95906.19;2045903;29;1756;-75
2022/03/16 04:35:21;;;;;;;;;;;;;;;13.91;31.68;95889.63;2042423;29;1607;-76
2022/03/16 04:36:22;;;;;;;;;;;;;;;14.06;31.49;95893.50;2041062;29;1116;-75
2022/03/16 04:37:24;;;;;;;;;;;;;;;13.95;31.79;95889.22;2042495;29;1176;-75
2022/03/16 04:38:26;;;;;;;;;;;;;;;13.96;31.36;95895.31;2040817;29;1789;-75
2022/03/16 04:39:27;;;;;;;;;;;;;;;14.46;31.93;95892.38;2041330;29;999;-75
2022/03/16 04:40:29;;;;;;;;;;;;;;;15.71;30.85;95894.41;2042368;29;1543;-75
2022/03/16 04:41:30;;;;;;;;;;;;;;;15.32;30.31;95884.13;2039811;29;1040;-72
2022/03/16 04:42:32;;;;;;;;;;;;;;;15.30;29.00;95886.06;2044267;28;1026;-74
2022/03/16 04:43:34;;;;;;;;;;;;;;;14.45;29.45;95888.06;2040093;29;1027;-74
2022/03/16 04:44:35;;;;;;;;;;;;;;;15.10;32.33;95887.19;2040472;29;1059;-75
2022/03/16 04:45:38;;;;;;;;;;;;;;;16.24;32.86;95882.00;2041184;29;1513;-69
2022/03/16 04:46:41;;;;;;;;;;;;;;;17.15;31.30;95882.22;2041093;29;1989;-70
2022/03/16 04:47:42;;;;;;;;;;;;;;;17.86;30.54;95878.19;2040690;29;1673;-70
2022/03/16 04:48:44;;;;;;;;;;;;;;;18.40;30.13;95877.59;2045476;29;1624;-70
2022/03/16 04:49:45;;;;;;;;;;;;;;;18.66;29.77;95882.63;2047010;28;1578;-71
2022/03/16 04:50:47;;;;;;;;;;;;;;;18.86;29.50;95875.13;2041426;29;1090;-71
2022/03/16 04:51:49;;;;;;;;;;;;;;;19.02;29.27;95872.38;2039867;29;1018;-70
2022/03/16 04:52:50;;;;;;;;;;;;;;;19.17;29.19;95868.97;2041024;29;1292;-71
2022/03/16 04:53:52;;;;;;;;;;;;;;;19.26;29.12;95862.59;2036238;29;1462;-71
2022/03/16 04:54:54;;;;;;;;;;;;;;;19.37;29.05;95864.03;2040942;29;1296;-72
2022/03/16 04:55:55;;;;;;;;;;;;;;;19.45;29.29;95867.44;2041675;29;1201;-73
2022/03/16 04:56:57;;;;;;;;;;;;;;;19.53;29.40;95867.41;2040306;29;1742;-76
2022/03/16 04:58:00;;;;;;;;;;;;;;;19.75;29.30;95864.91;2037358;29;1813;-72
2022/03/16 04:59:02;;;;;;;;;;;;;;;20.04;30.01;95866.03;2039834;29;1520;-74
2022/03/16 05:00:05;;;;;;;;;;;;;;;20.31;29.39;95862.72;2037670;29;1658;-73
2022/03/16 05:01:06;;;;;;;;;;;;;;;20.53;29.74;95863.69;2049595;28;1692;-73
2022/03/16 05:02:08;;;;;;;;;;;;;;;20.50;30.06;95866.69;2040311;29;1086;-79
2022/03/16 05:03:09;;;;;;;;;;;;;;;18.22;26.22;95859.22;2037032;29;1508;-70
2022/03/16 05:04:12;;;;;;;;;;;;;;;16.69;28.50;95859.72;2031719;29;1604;-76
2022/03/16 05:05:13;;;;;;;;;;;;;;;15.71;29.38;95866.13;2037519;29;1283;-73
2022/03/16 05:06:15;;;;;;;;;;;;;;;15.45;30.69;95860.78;2040383;29;1977;-73
2022/03/16 05:07:17;;;;;;;;;;;;;;;16.40;30.60;95856.44;2040081;29;1990;-71
2022/03/16 05:08:18;;;;;;;;;;;;;;;17.39;29.86;95862.03;2048487;29;1108;-73
2022/03/16 05:09:20;;;;;;;;;;;;;;;18.11;29.87;95857.72;2041963;29;1726;-76
2022/03/16 05:10:21;;;;;;;;;;;;;;;18.66;29.37;95848.09;2044281;29;1351;-71
2022/03/16 05:11:23;;;;;;;;;;;;;;;19.01;29.53;95852.13;2035313;29;1747;-72
2022/03/16 05:12:25;;;;;;;;;;;;;;;19.38;29.32;95845.25;2040591;29;1080;-72
2022/03/16 05:13:26;;;;;;;;;;;;;;;19.79;29.27;95842.25;2040027;29;1670;-71
2022/03/16 05:14:28;;;;;;;;;;;;;;;20.07;29.13;95849.69;2040802;29;987;-71
2022/03/16 05:15:31;;;;;;;;;;;;;;;20.25;29.37;95847.47;2036045;29;1203;-73
2022/03/16 05:16:32;;;;;;;;;;;;;;;20.25;29.56;95842.16;2041067;29;1010;-73
2022/03/16 05:17:35;;;;;;;;;;;;;;;20.23;30.19;95844.16;2042393;29;1706;-73
2022/03/16 05:18:40;;;;;;;;;;;;;;;20.19;29.93;95841.03;2040690;29;1101;-73
2022/03/16 05:19:41;;;;;;;;;;;;;;;20.20;30.17;95844.53;2033111;29;1564;-73
2022/03/16 05:20:43;;;;;;;;;;;;;;;20.20;30.34;95844.53;2039651;29;1764;-72
2022/03/16 05:21:44;;;;;;;;;;;;;;;20.22;30.29;95847.84;2032703;29;1187;-73
2022/03/16 05:22:46;;;;;;;;;;;;;;;20.22;30.33;95842.50;2032731;29;983;-72
2022/03/16 05:23:48;;;;;;;;;;;;;;;20.26;30.20;95845.63;2039875;29;1109;-72
2022/03/16 05:24:49;;;;;;;;;;;;;;;20.27;30.28;95848.13;2040346;29;1203;-73
2022/03/16 05:25:55;;;;;;;;;;;;;;;20.31;30.37;95851.25;2032520;29;1102;-73
2022/03/16 05:26:56;;;;;;;;;;;;;;;20.33;30.34;95844.72;2027898;29;1992;-73